createdAt,value
2022-12-19T00:01:44.074Z,9.50
2022-12-19T00:04:24.520Z,9.50
2022-12-19T00:07:10.970Z,9.50
2022-12-19T00:09:58.012Z,9.50
2022-12-19T00:12:37.962Z,9.50
2022-12-19T00:15:24.948Z,9.50
2022-12-19T00:18:05.007Z,9.50
2022-12-19T00:20:51.955Z,9.50
2022-12-19T00:23:33.019Z,9.50
2022-12-19T00:26:29.966Z,9.50
2022-12-19T00:29:14.543Z,9.50
2022-12-19T00:32:01.005Z,9.60
2022-12-19T00:34:42.074Z,9.60
2022-12-19T00:37:28.955Z,9.60
2022-12-19T00:40:10.018Z,9.60
2022-12-19T00:42:56.946Z,9.60
2022-12-19T00:45:38.096Z,9.60
2022-12-19T00:48:24.967Z,9.50
2022-12-19T00:51:15.039Z,9.60
2022-12-19T00:54:06.710Z,9.60
2022-12-19T00:56:47.004Z,9.70
2022-12-19T00:59:35.959Z,9.70
2022-12-19T01:02:16.150Z,9.70
2022-12-19T01:05:02.979Z,9.80
2022-12-19T01:07:43.054Z,9.80
2022-12-19T01:10:29.971Z,9.80
2022-12-19T01:13:10.024Z,9.80
2022-12-19T01:15:56.985Z,9.80
2022-12-19T01:18:43.958Z,9.80
2022-12-19T01:21:31.028Z,9.80
2022-12-19T01:24:11.954Z,9.80
2022-12-19T01:26:58.951Z,9.80
2022-12-19T01:29:51.950Z,9.80
2022-12-19T01:32:42.972Z,9.90
2022-12-19T01:35:23.018Z,9.90
2022-12-19T01:38:09.959Z,9.90
2022-12-19T01:41:04.983Z,9.90
2022-12-19T01:44:14.904Z,9.90
2022-12-19T01:47:07.960Z,9.90
2022-12-19T01:49:55.020Z,10.00
2022-12-19T01:52:35.957Z,10.00
2022-12-19T01:55:22.944Z,10.00
2022-12-19T01:58:16.916Z,10.00
2022-12-19T02:01:04.997Z,10.00
2022-12-19T02:03:48.007Z,10.00
2022-12-19T02:06:36.946Z,10.00
2022-12-19T02:09:18.005Z,10.00
2022-12-19T02:12:06.916Z,10.00
2022-12-19T02:15:03.118Z,10.00
2022-12-19T02:17:54.791Z,10.10
2022-12-19T02:21:10.937Z,10.10
2022-12-19T02:24:20.072Z,10.10
2022-12-19T02:27:35.920Z,10.10
2022-12-19T02:30:29.503Z,10.20
2022-12-19T02:33:39.929Z,10.20
2022-12-19T02:36:53.481Z,10.20
2022-12-19T02:39:54.930Z,10.20
2022-12-19T02:42:46.951Z,10.30
2022-12-19T02:45:29.055Z,10.30
2022-12-19T02:48:19.223Z,10.30
2022-12-19T02:51:05.943Z,10.30
2022-12-19T02:53:46.609Z,10.30
2022-12-19T02:56:53.966Z,10.30
2022-12-19T02:59:47.449Z,10.30
2022-12-19T03:02:42.617Z,10.30
2022-12-19T03:05:47.000Z,10.30
2022-12-19T03:08:53.952Z,10.30
2022-12-19T03:11:44.946Z,10.40
2022-12-19T03:14:28.033Z,10.40
2022-12-19T03:17:14.960Z,10.40
2022-12-19T03:19:55.021Z,10.40
2022-12-19T03:22:41.969Z,10.40
2022-12-19T03:25:22.039Z,10.50
2022-12-19T03:28:13.960Z,10.50
2022-12-19T03:30:55.066Z,10.50
2022-12-19T03:33:43.966Z,10.50
2022-12-19T03:36:30.047Z,10.50
2022-12-19T03:39:18.966Z,10.50
2022-12-19T03:42:24.967Z,10.50
2022-12-19T03:45:07.175Z,10.50
2022-12-19T03:48:02.968Z,10.50
2022-12-19T03:50:55.432Z,10.60
2022-12-19T03:54:00.977Z,10.50
2022-12-19T03:57:03.183Z,10.60
2022-12-19T03:59:55.976Z,10.60
2022-12-19T04:02:55.993Z,10.60
2022-12-19T04:05:43.949Z,10.60
2022-12-19T04:08:31.968Z,10.60
2022-12-19T04:11:18.016Z,10.60
2022-12-19T04:14:10.961Z,10.60
2022-12-19T04:16:58.033Z,10.50
2022-12-19T04:20:13.976Z,10.50
2022-12-19T04:23:09.975Z,10.50
2022-12-19T04:26:00.976Z,10.50
2022-12-19T04:28:55.955Z,10.40
2022-12-19T04:31:44.313Z,10.50
2022-12-19T04:34:26.957Z,10.50
2022-12-19T04:37:07.608Z,10.50
2022-12-19T04:39:53.978Z,10.50
2022-12-19T04:42:41.022Z,10.60
2022-12-19T04:45:23.979Z,10.50
2022-12-19T04:48:11.026Z,10.50
2022-12-19T04:50:50.939Z,10.60
2022-12-19T04:53:32.201Z,10.60
2022-12-19T04:56:19.958Z,10.60
2022-12-19T04:59:14.959Z,10.60
2022-12-19T05:02:02.031Z,10.60
2022-12-19T05:04:42.029Z,10.60
2022-12-19T05:07:28.952Z,10.70
2022-12-19T05:10:15.972Z,10.70
2022-12-19T05:12:56.463Z,10.70
2022-12-19T05:15:42.977Z,10.70
2022-12-19T05:18:30.040Z,10.70
2022-12-19T05:21:11.001Z,10.70
2022-12-19T05:23:51.606Z,10.70
2022-12-19T05:26:37.963Z,10.70
2022-12-19T05:29:18.484Z,10.80
2022-12-19T05:32:04.976Z,10.70
2022-12-19T05:34:51.969Z,10.80
2022-12-19T05:37:32.062Z,10.80
2022-12-19T05:40:18.972Z,10.80
2022-12-19T05:42:58.994Z,10.80
2022-12-19T05:45:46.959Z,10.80
2022-12-19T05:48:27.010Z,10.80
2022-12-19T05:51:14.958Z,10.90
2022-12-19T05:54:01.939Z,10.90
2022-12-19T05:56:48.956Z,10.90
2022-12-19T05:59:29.008Z,10.90
2022-12-19T06:02:16.026Z,10.90
2022-12-19T06:05:02.951Z,11.00
2022-12-19T06:07:43.469Z,11.00
2022-12-19T06:10:29.969Z,11.00
2022-12-19T06:13:22.111Z,11.10
2022-12-19T06:16:10.982Z,11.10
2022-12-19T06:18:57.968Z,11.10
2022-12-19T06:21:45.527Z,11.10
2022-12-19T06:24:34.957Z,11.10
2022-12-19T06:27:15.002Z,11.10
2022-12-19T06:30:01.965Z,11.10
2022-12-19T06:32:41.998Z,11.10
2022-12-19T06:35:28.950Z,11.20
2022-12-19T06:38:09.007Z,11.20
2022-12-19T06:41:13.955Z,11.20
2022-12-19T06:43:54.088Z,11.20
2022-12-19T06:46:40.975Z,11.20
2022-12-19T06:49:22.023Z,11.20
2022-12-19T06:52:09.959Z,11.30
2022-12-19T06:54:50.042Z,11.30
2022-12-19T06:57:36.940Z,11.40
2022-12-19T07:00:25.034Z,11.40
2022-12-19T07:03:09.451Z,11.40
2022-12-19T07:05:56.011Z,11.50
2022-12-19T07:08:36.474Z,11.60
2022-12-19T07:11:22.937Z,11.80
2022-12-19T07:14:03.457Z,12.00
2022-12-19T07:16:50.065Z,12.10
2022-12-19T07:19:32.638Z,12.30
2022-12-19T07:22:19.953Z,12.40
2022-12-19T07:25:02.282Z,12.50
2022-12-19T07:27:49.955Z,12.70
2022-12-19T07:30:36.959Z,12.80
2022-12-19T07:33:23.982Z,12.80
2022-12-19T07:36:12.668Z,12.90
2022-12-19T07:38:58.938Z,13.00
2022-12-19T07:41:46.037Z,13.10
2022-12-19T07:44:36.954Z,13.20
2022-12-19T07:47:24.124Z,13.30
2022-12-19T07:50:04.144Z,13.30
2022-12-19T07:52:52.053Z,13.40
2022-12-19T07:55:39.991Z,13.40
2022-12-19T07:58:27.026Z,13.50
2022-12-19T08:01:07.024Z,13.60
2022-12-19T08:03:48.431Z,13.60
2022-12-19T08:06:40.617Z,13.70
2022-12-19T08:09:20.933Z,13.70
2022-12-19T08:12:07.959Z,13.70
2022-12-19T08:14:50.674Z,13.80
2022-12-19T08:17:39.961Z,13.90
2022-12-19T08:20:20.173Z,13.90
2022-12-19T08:23:06.948Z,13.90
2022-12-19T08:25:46.988Z,14.00
2022-12-19T08:28:36.577Z,14.00
2022-12-19T08:31:19.387Z,14.00
2022-12-19T08:34:06.363Z,14.10
2022-12-19T08:37:02.131Z,14.10
2022-12-19T08:39:51.161Z,14.20
2022-12-19T08:42:32.142Z,14.20
2022-12-19T08:45:18.131Z,14.20
2022-12-19T08:48:04.955Z,14.20
2022-12-19T08:50:59.624Z,14.30
2022-12-19T08:53:49.950Z,14.30
2022-12-19T08:56:30.781Z,14.30
2022-12-19T08:59:25.665Z,14.30
2022-12-19T09:02:22.244Z,14.40
2022-12-19T09:06:00.931Z,14.40
2022-12-19T09:08:12.988Z,14.50
2022-12-19T09:10:52.932Z,14.50
2022-12-19T09:13:41.022Z,14.50
2022-12-19T09:16:24.029Z,14.50
2022-12-19T09:19:10.974Z,14.50
2022-12-19T09:21:51.061Z,14.50
2022-12-19T09:24:37.971Z,14.60
2022-12-19T09:27:24.986Z,14.60
2022-12-19T09:30:12.993Z,14.60
2022-12-19T09:32:54.134Z,14.70
2022-12-19T09:35:41.036Z,14.70
2022-12-19T09:38:21.044Z,14.70
2022-12-19T09:41:08.048Z,14.80
2022-12-19T09:44:08.943Z,14.70
2022-12-19T09:46:58.101Z,14.80
2022-12-19T09:49:49.983Z,14.80
2022-12-19T09:52:42.033Z,14.80
2022-12-19T09:55:37.977Z,14.80
2022-12-19T09:59:00.956Z,14.80
2022-12-19T10:02:11.302Z,14.90
2022-12-19T10:05:26.941Z,14.90
2022-12-19T10:08:16.006Z,14.90
2022-12-19T10:12:40.176Z,15.00
2022-12-19T10:14:21.080Z,15.00
2022-12-19T10:17:25.050Z,15.00
2022-12-19T10:20:34.183Z,15.00
2022-12-19T10:23:58.968Z,15.00
2022-12-19T10:27:06.965Z,15.10
2022-12-19T10:30:02.419Z,15.10
2022-12-19T10:32:58.002Z,15.20
2022-12-19T10:35:43.255Z,15.20
2022-12-19T10:38:34.000Z,15.20
2022-12-19T10:41:30.960Z,15.30
2022-12-19T10:44:20.990Z,15.30
2022-12-19T10:47:01.470Z,15.30
2022-12-19T10:49:50.984Z,15.30
2022-12-19T10:53:02.961Z,15.40
2022-12-19T10:55:55.979Z,15.40
2022-12-19T10:58:45.739Z,15.40
2022-12-19T11:01:36.120Z,15.40
2022-12-19T11:04:26.012Z,15.40
2022-12-19T11:07:09.047Z,15.40
2022-12-19T11:10:10.618Z,15.40
2022-12-19T11:17:10.926Z,15.40
2022-12-19T11:19:15.958Z,15.50
2022-12-19T11:19:49.881Z,15.50
2022-12-19T11:29:36.669Z,15.50
2022-12-19T11:29:44.967Z,15.60
2022-12-19T11:30:46.768Z,15.50
2022-12-19T11:35:02.766Z,15.60
2022-12-19T11:38:15.953Z,15.60
2022-12-19T11:41:06.046Z,15.60
2022-12-19T11:43:55.969Z,15.60
2022-12-19T11:47:07.828Z,15.60
2022-12-19T11:50:00.973Z,15.60
2022-12-19T11:53:14.868Z,15.60
2022-12-19T11:56:16.627Z,15.60
2022-12-19T11:59:01.347Z,15.60
2022-12-19T12:01:57.058Z,15.60
2022-12-19T12:05:04.993Z,15.60
2022-12-19T12:09:09.602Z,15.60
2022-12-19T12:18:43.263Z,15.70
2022-12-19T12:25:07.045Z,15.70
2022-12-19T12:30:36.321Z,15.70
2022-12-19T12:31:22.382Z,15.70
2022-12-19T12:31:32.656Z,15.70
2022-12-19T12:31:50.062Z,15.70
2022-12-19T12:38:36.052Z,15.70
2022-12-19T12:41:46.664Z,15.70
2022-12-19T12:44:33.744Z,15.70
2022-12-19T12:47:30.963Z,15.80
2022-12-19T12:50:15.058Z,15.70
2022-12-19T12:53:05.949Z,15.80
2022-12-19T12:55:47.037Z,15.80
2022-12-19T12:58:53.960Z,15.80
2022-12-19T13:01:44.159Z,15.90
2022-12-19T13:04:33.956Z,15.90
2022-12-19T13:07:54.988Z,15.80
2022-12-19T13:10:42.952Z,15.90
2022-12-19T13:13:25.983Z,15.90
2022-12-19T13:16:51.043Z,15.90
2022-12-19T13:19:43.987Z,15.90
2022-12-19T13:22:36.217Z,15.90
2022-12-19T13:25:40.970Z,15.90
2022-12-19T13:28:21.426Z,15.90
2022-12-19T13:31:22.842Z,15.90
2022-12-19T13:34:11.509Z,15.90
2022-12-19T13:39:49.256Z,15.90
2022-12-19T13:40:20.531Z,15.90
2022-12-19T13:43:30.971Z,15.90
2022-12-19T13:46:33.078Z,16.00
2022-12-19T13:49:32.901Z,15.90
2022-12-19T13:52:17.075Z,15.90
2022-12-19T13:55:08.985Z,16.00
2022-12-19T13:58:06.944Z,16.00
2022-12-19T14:00:54.115Z,16.00
2022-12-19T14:03:49.111Z,16.00
2022-12-19T14:06:44.988Z,16.00
2022-12-19T14:11:33.757Z,15.90
2022-12-19T14:13:57.636Z,16.00
2022-12-19T14:16:12.984Z,16.00
2022-12-19T14:19:00.642Z,16.00
2022-12-19T14:22:11.238Z,16.00
2022-12-19T14:24:48.037Z,16.00
2022-12-19T14:28:25.426Z,16.00
2022-12-19T14:30:38.563Z,16.00
2022-12-19T14:33:43.766Z,16.00
2022-12-19T14:36:34.584Z,15.90
2022-12-19T14:39:29.994Z,15.90
2022-12-19T14:43:58.793Z,16.00
2022-12-19T14:52:35.579Z,16.00
2022-12-19T14:53:34.137Z,16.00
2022-12-19T14:54:26.179Z,16.00
2022-12-19T14:56:17.753Z,16.00
2022-12-19T14:58:53.873Z,16.00
2022-12-19T15:01:43.060Z,16.00
2022-12-19T15:04:52.257Z,16.00
2022-12-19T15:07:37.964Z,16.00
2022-12-19T15:11:05.007Z,16.00
2022-12-19T15:14:53.289Z,15.90
2022-12-19T15:16:45.977Z,16.00
2022-12-19T15:19:26.469Z,16.00
2022-12-19T15:22:12.964Z,15.90
2022-12-19T15:25:00.965Z,16.00
2022-12-19T15:27:41.024Z,15.90
2022-12-19T15:30:28.979Z,16.00
2022-12-19T15:33:09.031Z,15.90
2022-12-19T15:35:55.968Z,15.90
2022-12-19T15:38:36.033Z,15.90
2022-12-19T15:41:26.958Z,15.90
2022-12-19T15:44:19.991Z,15.90
2022-12-19T15:47:02.084Z,15.90
2022-12-19T15:49:48.992Z,15.90
2022-12-19T15:52:30.196Z,15.90
2022-12-19T15:55:16.975Z,15.90
2022-12-19T15:58:18.970Z,16.00
2022-12-19T16:01:09.969Z,15.90
2022-12-19T16:03:50.375Z,15.90
2022-12-19T16:06:36.960Z,15.90
2022-12-19T16:09:33.013Z,15.90
2022-12-19T16:12:29.964Z,15.90
2022-12-19T16:15:17.977Z,15.90
2022-12-19T16:18:06.962Z,15.90
2022-12-19T16:20:48.064Z,15.90
2022-12-19T16:23:34.973Z,15.90
2022-12-19T16:26:41.013Z,16.00
2022-12-19T16:29:40.801Z,15.90
2022-12-19T16:32:23.045Z,16.00
2022-12-19T16:35:34.361Z,15.90
2022-12-19T16:38:19.047Z,15.90
2022-12-19T16:41:06.118Z,16.00
2022-12-19T16:43:56.964Z,15.90
2022-12-19T16:46:37.528Z,15.90
2022-12-19T16:49:32.003Z,16.00
2022-12-19T16:52:18.953Z,15.90
2022-12-19T16:54:59.046Z,16.00
2022-12-19T16:57:45.977Z,16.00
2022-12-19T17:00:40.055Z,16.00
2022-12-19T17:03:33.063Z,16.00
2022-12-19T17:06:14.044Z,16.00
2022-12-19T17:09:01.000Z,16.00
2022-12-19T17:11:47.981Z,16.00
2022-12-19T17:14:38.006Z,16.00
2022-12-19T17:17:22.028Z,16.00
2022-12-19T17:20:08.969Z,16.00
2022-12-19T17:22:49.079Z,15.90
2022-12-19T17:25:35.973Z,16.00
2022-12-19T17:28:17.072Z,16.00
2022-12-19T17:31:05.035Z,16.00
2022-12-19T17:33:47.095Z,16.00
2022-12-19T17:36:38.006Z,16.00
2022-12-19T17:39:32.029Z,16.00
2022-12-19T17:42:36.917Z,16.00
2022-12-19T17:45:18.102Z,16.00
2022-12-19T17:48:08.987Z,16.00
2022-12-19T17:50:55.973Z,16.00
2022-12-19T17:53:36.468Z,16.00
2022-12-19T17:56:30.970Z,16.00
2022-12-19T17:59:24.982Z,16.00
2022-12-19T18:02:27.048Z,16.00
2022-12-19T18:05:13.971Z,16.00
2022-12-19T18:08:01.063Z,16.00
2022-12-19T18:10:40.970Z,16.00
2022-12-19T18:13:28.094Z,16.00
2022-12-19T18:16:10.012Z,16.00
2022-12-19T18:18:57.016Z,16.00
2022-12-19T18:21:37.090Z,16.00
2022-12-19T18:24:23.957Z,16.00
2022-12-19T18:27:10.980Z,16.00
2022-12-19T18:29:57.974Z,16.00
2022-12-19T18:32:38.144Z,16.00
2022-12-19T18:35:27.984Z,16.00
2022-12-19T18:38:17.968Z,16.00
2022-12-19T18:40:58.697Z,16.00
2022-12-19T18:43:45.002Z,16.00
2022-12-19T18:46:28.098Z,16.00
2022-12-19T18:49:14.973Z,16.00
2022-12-19T18:51:55.583Z,16.00
2022-12-19T18:54:41.998Z,16.00
2022-12-19T18:57:22.458Z,16.00
2022-12-19T19:00:08.989Z,16.00
2022-12-19T19:03:08.185Z,16.00
2022-12-19T19:05:47.997Z,16.00
2022-12-19T19:08:30.897Z,16.00
2022-12-19T19:11:34.004Z,16.00
2022-12-19T19:14:20.984Z,16.00
2022-12-19T19:17:08.039Z,16.10
2022-12-19T19:19:48.471Z,16.00
2022-12-19T19:22:34.992Z,16.00
2022-12-19T19:25:22.094Z,16.00
2022-12-19T19:28:02.995Z,16.00
2022-12-19T19:30:43.314Z,16.00
2022-12-19T19:33:34.974Z,16.00
2022-12-19T19:36:19.307Z,16.10
2022-12-19T19:39:08.989Z,16.00
2022-12-19T19:41:56.405Z,16.00
2022-12-19T19:44:37.000Z,16.00
2022-12-19T19:47:23.957Z,16.00
2022-12-19T19:50:10.998Z,16.00
2022-12-19T19:52:51.505Z,16.00
2022-12-19T19:55:38.985Z,16.00
2022-12-19T19:58:32.992Z,16.00
2022-12-19T20:01:14.259Z,16.00
2022-12-19T20:04:01.090Z,16.10
2022-12-19T20:06:48.139Z,16.10
2022-12-19T20:09:27.981Z,16.10
2022-12-19T20:12:08.495Z,16.10
2022-12-19T20:14:55.020Z,16.00
2022-12-19T20:17:35.766Z,16.10
2022-12-19T20:20:23.001Z,16.00
2022-12-19T20:23:10.098Z,16.10
2022-12-19T20:25:49.978Z,16.00
2022-12-19T20:28:31.464Z,16.10
2022-12-19T20:31:18.105Z,16.00
2022-12-19T20:33:58.693Z,16.10
2022-12-19T20:36:44.989Z,16.10
2022-12-19T20:39:31.982Z,16.10
2022-12-19T20:42:12.317Z,16.10
2022-12-19T20:44:59.252Z,16.10
2022-12-19T20:47:39.104Z,16.10
2022-12-19T20:50:25.976Z,16.10
2022-12-19T20:53:06.032Z,16.10
2022-12-19T20:56:01.989Z,16.10
2022-12-19T20:58:55.991Z,16.00
2022-12-19T21:01:36.795Z,15.90
2022-12-19T21:04:24.170Z,15.70
2022-12-19T21:07:11.023Z,15.60
2022-12-19T21:09:52.122Z,15.60
2022-12-19T21:12:45.529Z,15.50
2022-12-19T21:15:27.058Z,15.40
2022-12-19T21:18:14.016Z,15.40
2022-12-19T21:20:54.083Z,15.30
2022-12-19T21:23:40.977Z,15.30
2022-12-19T21:26:21.033Z,15.20
2022-12-19T21:29:07.986Z,15.20
2022-12-19T21:31:48.424Z,15.20
2022-12-19T21:34:34.992Z,15.10
2022-12-19T21:37:24.142Z,15.10
2022-12-19T21:40:04.971Z,15.10
2022-12-19T21:42:52.061Z,15.10
2022-12-19T21:45:31.990Z,15.10
2022-12-19T21:48:18.988Z,15.00
2022-12-19T21:51:03.079Z,15.00
2022-12-19T21:53:49.991Z,15.00
2022-12-19T21:56:45.985Z,15.00
2022-12-19T21:59:33.037Z,15.00
2022-12-19T22:02:16.074Z,14.90
2022-12-19T22:04:56.462Z,14.90
2022-12-19T22:07:42.999Z,14.90
2022-12-19T22:10:29.993Z,14.90
2022-12-19T22:13:10.317Z,14.90
2022-12-19T22:15:57.028Z,14.90
2022-12-19T22:18:37.184Z,14.80
2022-12-19T22:21:24.007Z,14.90
2022-12-19T22:24:09.038Z,14.90
2022-12-19T22:26:56.003Z,14.90
2022-12-19T22:29:36.661Z,14.80
2022-12-19T22:32:23.974Z,14.80
2022-12-19T22:35:10.992Z,14.80
2022-12-19T22:37:58.096Z,14.80
2022-12-19T22:40:39.994Z,14.80
2022-12-19T22:43:20.663Z,14.80
2022-12-19T22:46:07.067Z,14.80
2022-12-19T22:48:56.063Z,14.80
2022-12-19T22:51:37.991Z,14.80
2022-12-19T22:54:25.053Z,14.80
2022-12-19T22:57:19.976Z,14.80
2022-12-19T23:00:07.486Z,14.80
2022-12-19T23:02:48.118Z,14.80
2022-12-19T23:05:28.246Z,14.90
2022-12-19T23:08:14.983Z,14.80
2022-12-19T23:10:56.370Z,14.90
2022-12-19T23:13:42.996Z,14.80
2022-12-19T23:16:30.072Z,14.90
2022-12-19T23:19:12.617Z,14.90
2022-12-19T23:21:58.965Z,14.80
2022-12-19T23:24:40.299Z,14.80
2022-12-19T23:27:26.973Z,14.80
2022-12-19T23:30:07.027Z,14.80
2022-12-19T23:32:53.987Z,14.90
2022-12-19T23:35:35.109Z,14.90
2022-12-19T23:38:21.990Z,14.80
2022-12-19T23:41:09.055Z,14.80
2022-12-19T23:43:55.965Z,14.80
2022-12-19T23:46:42.991Z,14.80
2022-12-19T23:49:23.508Z,14.70
2022-12-19T23:52:09.999Z,14.70
2022-12-19T23:54:51.400Z,14.80
2022-12-19T23:57:38.001Z,14.80
